sensor_id;sensor_type;location;lat;lon;timestamp;temperature;humidity
20284;DHT22;10301;50.832;4.080;2023-12-14T00:02:20;10.90;99.90
20284;DHT22;10301;50.832;4.080;2023-12-14T00:04:46;10.90;99.90
20284;DHT22;10301;50.832;4.080;2023-12-14T00:07:12;11.00;99.90
20284;DHT22;10301;50.832;4.080;2023-12-14T00:09:40;10.80;99.90
20284;DHT22;10301;50.832;4.080;2023-12-14T00:12:06;10.70;99.90
20284;DHT22;10301;50.832;4.080;2023-12-14T00:14:31;10.60;99.90
20284;DHT22;10301;50.832;4.080;2023-12-14T00:16:57;10.80;99.90
20284;DHT22;10301;50.832;4.080;2023-12-14T00:19:24;10.60;99.90
20284;DHT22;10301;50.832;4.080;2023-12-14T00:21:50;10.80;99.90
20284;DHT22;10301;50.832;4.080;2023-12-14T00:24:15;10.80;99.90
20284;DHT22;10301;50.832;4.080;2023-12-14T00:26:41;10.40;99.90
20284;DHT22;10301;50.832;4.080;2023-12-14T00:29:07;10.60;99.90
20284;DHT22;10301;50.832;4.080;2023-12-14T00:31:32;10.60;99.90
20284;DHT22;10301;50.832;4.080;2023-12-14T00:33:58;10.80;99.90
20284;DHT22;10301;50.832;4.080;2023-12-14T00:36:24;10.70;99.90
20284;DHT22;10301;50.832;4.080;2023-12-14T00:38:49;10.80;99.90
20284;DHT22;10301;50.832;4.080;2023-12-14T00:41:15;10.70;99.90
20284;DHT22;10301;50.832;4.080;2023-12-14T00:43:40;10.50;99.90
20284;DHT22;10301;50.832;4.080;2023-12-14T00:46:07;10.80;99.90
20284;DHT22;10301;50.832;4.080;2023-12-14T00:48:33;11.00;99.90
20284;DHT22;10301;50.832;4.080;2023-12-14T00:50:58;11.00;99.90
20284;DHT22;10301;50.832;4.080;2023-12-14T00:53:24;11.00;99.90
20284;DHT22;10301;50.832;4.080;2023-12-14T00:55:50;10.50;99.90
20284;DHT22;10301;50.832;4.080;2023-12-14T00:58:15;10.20;99.90
20284;DHT22;10301;50.832;4.080;2023-12-14T01:00:41;9.90;99.90
20284;DHT22;10301;50.832;4.080;2023-12-14T01:03:07;10.40;99.90
20284;DHT22;10301;50.832;4.080;2023-12-14T01:05:33;10.70;99.90
20284;DHT22;10301;50.832;4.080;2023-12-14T01:07:59;10.60;99.90
20284;DHT22;10301;50.832;4.080;2023-12-14T01:10:25;10.80;99.90
20284;DHT22;10301;50.832;4.080;2023-12-14T01:12:50;10.70;99.90
20284;DHT22;10301;50.832;4.080;2023-12-14T01:15:16;10.80;99.90
20284;DHT22;10301;50.832;4.080;2023-12-14T01:17:42;10.90;99.90
20284;DHT22;10301;50.832;4.080;2023-12-14T01:20:08;10.80;99.90
20284;DHT22;10301;50.832;4.080;2023-12-14T01:22:33;10.80;99.90
20284;DHT22;10301;50.832;4.080;2023-12-14T01:24:59;10.90;99.90
20284;DHT22;10301;50.832;4.080;2023-12-14T01:27:25;10.70;99.90
20284;DHT22;10301;50.832;4.080;2023-12-14T01:29:51;10.60;99.90
20284;DHT22;10301;50.832;4.080;2023-12-14T01:32:16;10.60;99.90
20284;DHT22;10301;50.832;4.080;2023-12-14T01:34:42;10.70;99.90
20284;DHT22;10301;50.832;4.080;2023-12-14T01:37:07;10.80;99.90
20284;DHT22;10301;50.832;4.080;2023-12-14T01:39:33;10.90;99.90
20284;DHT22;10301;50.832;4.080;2023-12-14T01:41:59;10.90;99.90
20284;DHT22;10301;50.832;4.080;2023-12-14T01:44:24;10.80;99.90
20284;DHT22;10301;50.832;4.080;2023-12-14T01:46:50;10.80;99.90
20284;DHT22;10301;50.832;4.080;2023-12-14T01:49:15;10.20;99.90
20284;DHT22;10301;50.832;4.080;2023-12-14T01:51:41;10.30;99.90
20284;DHT22;10301;50.832;4.080;2023-12-14T01:54:07;10.20;99.90
20284;DHT22;10301;50.832;4.080;2023-12-14T01:56:32;10.10;99.90
20284;DHT22;10301;50.832;4.080;2023-12-14T01:58:58;9.80;99.90
20284;DHT22;10301;50.832;4.080;2023-12-14T02:01:46;9.60;99.90
20284;DHT22;10301;50.832;4.080;2023-12-14T02:04:13;9.80;99.90
20284;DHT22;10301;50.832;4.080;2023-12-14T02:06:40;10.00;99.90
20284;DHT22;10301;50.832;4.080;2023-12-14T02:09:06;9.80;99.90
20284;DHT22;10301;50.832;4.080;2023-12-14T02:11:31;9.70;99.90
20284;DHT22;10301;50.832;4.080;2023-12-14T02:13:57;9.90;99.90
20284;DHT22;10301;50.832;4.080;2023-12-14T02:16:23;9.90;99.90
20284;DHT22;10301;50.832;4.080;2023-12-14T02:18:49;10.10;99.90
20284;DHT22;10301;50.832;4.080;2023-12-14T02:21:15;9.80;99.90
20284;DHT22;10301;50.832;4.080;2023-12-14T02:23:46;10.00;99.90
20284;DHT22;10301;50.832;4.080;2023-12-14T02:26:13;10.20;99.90
20284;DHT22;10301;50.832;4.080;2023-12-14T02:28:38;10.30;99.90
20284;DHT22;10301;50.832;4.080;2023-12-14T02:31:04;10.30;99.90
20284;DHT22;10301;50.832;4.080;2023-12-14T02:33:30;9.90;99.90
20284;DHT22;10301;50.832;4.080;2023-12-14T02:35:56;10.00;99.90
20284;DHT22;10301;50.832;4.080;2023-12-14T02:38:22;10.00;99.90
20284;DHT22;10301;50.832;4.080;2023-12-14T02:40:47;10.00;99.90
20284;DHT22;10301;50.832;4.080;2023-12-14T02:43:15;9.90;99.90
20284;DHT22;10301;50.832;4.080;2023-12-14T02:45:41;9.90;99.90
20284;DHT22;10301;50.832;4.080;2023-12-14T02:48:07;9.90;99.90
20284;DHT22;10301;50.832;4.080;2023-12-14T02:50:32;9.80;99.90
20284;DHT22;10301;50.832;4.080;2023-12-14T02:52:58;9.90;99.90
20284;DHT22;10301;50.832;4.080;2023-12-14T02:55:24;9.80;99.90
20284;DHT22;10301;50.832;4.080;2023-12-14T02:57:49;9.30;99.90
20284;DHT22;10301;50.832;4.080;2023-12-14T03:00:15;9.30;99.90
20284;DHT22;10301;50.832;4.080;2023-12-14T03:02:41;9.30;99.90
20284;DHT22;10301;50.832;4.080;2023-12-14T03:05:07;9.50;99.90
20284;DHT22;10301;50.832;4.080;2023-12-14T03:07:32;9.50;99.90
20284;DHT22;10301;50.832;4.080;2023-12-14T03:09:58;9.60;99.90
20284;DHT22;10301;50.832;4.080;2023-12-14T03:12:24;9.50;99.90
20284;DHT22;10301;50.832;4.080;2023-12-14T03:14:49;9.30;99.90
20284;DHT22;10301;50.832;4.080;2023-12-14T03:17:15;9.20;99.90
20284;DHT22;10301;50.832;4.080;2023-12-14T03:19:42;9.10;99.90
20284;DHT22;10301;50.832;4.080;2023-12-14T03:22:08;9.00;99.90
20284;DHT22;10301;50.832;4.080;2023-12-14T03:24:37;8.80;99.90
20284;DHT22;10301;50.832;4.080;2023-12-14T03:27:03;8.80;99.90
20284;DHT22;10301;50.832;4.080;2023-12-14T03:29:29;8.70;99.90
20284;DHT22;10301;50.832;4.080;2023-12-14T03:31:58;8.60;99.90
20284;DHT22;10301;50.832;4.080;2023-12-14T03:34:24;8.60;99.90
20284;DHT22;10301;50.832;4.080;2023-12-14T03:36:50;8.60;99.90
20284;DHT22;10301;50.832;4.080;2023-12-14T03:39:16;8.50;99.90
20284;DHT22;10301;50.832;4.080;2023-12-14T03:41:42;8.30;99.90
20284;DHT22;10301;50.832;4.080;2023-12-14T03:44:08;8.40;99.90
20284;DHT22;10301;50.832;4.080;2023-12-14T03:46:33;8.50;99.90
20284;DHT22;10301;50.832;4.080;2023-12-14T03:49:00;8.60;99.90
20284;DHT22;10301;50.832;4.080;2023-12-14T03:51:25;8.50;99.90
20284;DHT22;10301;50.832;4.080;2023-12-14T03:53:51;8.30;99.90
20284;DHT22;10301;50.832;4.080;2023-12-14T03:56:17;8.40;99.90
20284;DHT22;10301;50.832;4.080;2023-12-14T03:58:42;8.30;99.90
20284;DHT22;10301;50.832;4.080;2023-12-14T04:01:14;8.20;99.90
20284;DHT22;10301;50.832;4.080;2023-12-14T04:03:40;8.20;99.90
20284;DHT22;10301;50.832;4.080;2023-12-14T04:06:06;8.10;99.90
20284;DHT22;10301;50.832;4.080;2023-12-14T04:08:31;8.00;99.90
20284;DHT22;10301;50.832;4.080;2023-12-14T04:10:57;8.20;99.90
20284;DHT22;10301;50.832;4.080;2023-12-14T04:13:23;8.40;99.90
20284;DHT22;10301;50.832;4.080;2023-12-14T04:15:48;8.30;99.90
20284;DHT22;10301;50.832;4.080;2023-12-14T04:18:14;8.30;99.90
20284;DHT22;10301;50.832;4.080;2023-12-14T04:20:40;8.30;99.90
20284;DHT22;10301;50.832;4.080;2023-12-14T04:23:05;8.20;99.90
20284;DHT22;10301;50.832;4.080;2023-12-14T04:25:31;8.10;99.90
20284;DHT22;10301;50.832;4.080;2023-12-14T04:27:57;8.00;99.90
20284;DHT22;10301;50.832;4.080;2023-12-14T04:30:23;8.00;99.90
20284;DHT22;10301;50.832;4.080;2023-12-14T04:32:48;7.90;99.90
20284;DHT22;10301;50.832;4.080;2023-12-14T04:35:14;7.70;99.90
20284;DHT22;10301;50.832;4.080;2023-12-14T04:37:40;7.50;99.90
20284;DHT22;10301;50.832;4.080;2023-12-14T04:40:06;7.60;99.90
20284;DHT22;10301;50.832;4.080;2023-12-14T04:42:34;7.80;99.90
20284;DHT22;10301;50.832;4.080;2023-12-14T04:44:59;7.90;99.90
20284;DHT22;10301;50.832;4.080;2023-12-14T04:47:25;8.00;99.90
20284;DHT22;10301;50.832;4.080;2023-12-14T04:49:51;8.10;99.90
20284;DHT22;10301;50.832;4.080;2023-12-14T04:52:16;8.10;99.90
20284;DHT22;10301;50.832;4.080;2023-12-14T04:54:42;7.70;99.90
20284;DHT22;10301;50.832;4.080;2023-12-14T04:57:08;7.90;99.90
20284;DHT22;10301;50.832;4.080;2023-12-14T04:59:33;8.10;99.90
20284;DHT22;10301;50.832;4.080;2023-12-14T05:01:59;7.80;99.90
20284;DHT22;10301;50.832;4.080;2023-12-14T05:04:24;8.00;99.90
20284;DHT22;10301;50.832;4.080;2023-12-14T05:06:50;8.10;99.90
20284;DHT22;10301;50.832;4.080;2023-12-14T05:09:16;8.30;99.90
20284;DHT22;10301;50.832;4.080;2023-12-14T05:11:42;8.40;99.90
20284;DHT22;10301;50.832;4.080;2023-12-14T05:14:08;8.50;99.90
20284;DHT22;10301;50.832;4.080;2023-12-14T05:16:34;8.50;99.90
20284;DHT22;10301;50.832;4.080;2023-12-14T05:18:59;8.30;99.90
20284;DHT22;10301;50.832;4.080;2023-12-14T05:21:25;8.40;99.90
20284;DHT22;10301;50.832;4.080;2023-12-14T05:23:51;8.40;99.90
20284;DHT22;10301;50.832;4.080;2023-12-14T05:26:16;8.30;99.90
20284;DHT22;10301;50.832;4.080;2023-12-14T05:28:42;8.40;99.90
20284;DHT22;10301;50.832;4.080;2023-12-14T05:31:08;8.40;99.90
20284;DHT22;10301;50.832;4.080;2023-12-14T05:33:37;8.30;99.90
20284;DHT22;10301;50.832;4.080;2023-12-14T05:36:08;8.40;99.90
20284;DHT22;10301;50.832;4.080;2023-12-14T05:38:38;8.50;99.90
20284;DHT22;10301;50.832;4.080;2023-12-14T05:41:04;8.40;99.90
20284;DHT22;10301;50.832;4.080;2023-12-14T05:43:29;8.20;99.90
20284;DHT22;10301;50.832;4.080;2023-12-14T05:45:55;8.20;99.90
20284;DHT22;10301;50.832;4.080;2023-12-14T05:48:21;8.30;99.90
20284;DHT22;10301;50.832;4.080;2023-12-14T05:50:46;8.40;99.90
20284;DHT22;10301;50.832;4.080;2023-12-14T05:53:12;8.50;99.90
20284;DHT22;10301;50.832;4.080;2023-12-14T05:55:37;8.70;99.90
20284;DHT22;10301;50.832;4.080;2023-12-14T05:58:05;8.70;99.90
20284;DHT22;10301;50.832;4.080;2023-12-14T06:00:31;8.60;99.90
20284;DHT22;10301;50.832;4.080;2023-12-14T06:02:58;8.70;99.90
20284;DHT22;10301;50.832;4.080;2023-12-14T06:05:24;8.80;99.90
20284;DHT22;10301;50.832;4.080;2023-12-14T06:07:50;8.60;99.90
20284;DHT22;10301;50.832;4.080;2023-12-14T06:10:15;8.60;99.90
20284;DHT22;10301;50.832;4.080;2023-12-14T06:12:41;8.50;99.90
20284;DHT22;10301;50.832;4.080;2023-12-14T06:15:07;8.50;99.90
20284;DHT22;10301;50.832;4.080;2023-12-14T06:17:33;8.60;99.90
20284;DHT22;10301;50.832;4.080;2023-12-14T06:19:59;8.70;99.90
20284;DHT22;10301;50.832;4.080;2023-12-14T06:22:25;8.70;99.90
20284;DHT22;10301;50.832;4.080;2023-12-14T06:24:52;8.60;99.90
20284;DHT22;10301;50.832;4.080;2023-12-14T06:27:17;8.70;99.90
20284;DHT22;10301;50.832;4.080;2023-12-14T06:29:43;8.70;99.90
20284;DHT22;10301;50.832;4.080;2023-12-14T06:32:09;8.80;99.50
20284;DHT22;10301;50.832;4.080;2023-12-14T06:34:34;8.70;99.60
20284;DHT22;10301;50.832;4.080;2023-12-14T06:37:00;8.70;99.30
20284;DHT22;10301;50.832;4.080;2023-12-14T06:39:27;8.40;99.60
20284;DHT22;10301;50.832;4.080;2023-12-14T06:41:53;8.40;99.90
20284;DHT22;10301;50.832;4.080;2023-12-14T06:44:19;8.40;99.90
20284;DHT22;10301;50.832;4.080;2023-12-14T06:46:44;8.30;99.90
20284;DHT22;10301;50.832;4.080;2023-12-14T06:49:10;8.30;99.90
20284;DHT22;10301;50.832;4.080;2023-12-14T06:51:36;8.20;99.90
20284;DHT22;10301;50.832;4.080;2023-12-14T06:54:01;8.00;99.90
20284;DHT22;10301;50.832;4.080;2023-12-14T06:56:27;8.00;99.90
20284;DHT22;10301;50.832;4.080;2023-12-14T06:58:53;7.90;99.90
20284;DHT22;10301;50.832;4.080;2023-12-14T07:01:19;7.90;99.90
20284;DHT22;10301;50.832;4.080;2023-12-14T07:03:44;7.80;99.90
20284;DHT22;10301;50.832;4.080;2023-12-14T07:06:15;7.70;99.90
20284;DHT22;10301;50.832;4.080;2023-12-14T07:08:41;7.70;99.90
20284;DHT22;10301;50.832;4.080;2023-12-14T07:11:11;7.70;99.90
20284;DHT22;10301;50.832;4.080;2023-12-14T07:13:37;7.70;99.90
20284;DHT22;10301;50.832;4.080;2023-12-14T07:16:07;7.80;99.90
20284;DHT22;10301;50.832;4.080;2023-12-14T07:18:41;7.70;99.90
20284;DHT22;10301;50.832;4.080;2023-12-14T07:21:08;7.90;99.90
20284;DHT22;10301;50.832;4.080;2023-12-14T07:23:34;8.00;99.90
20284;DHT22;10301;50.832;4.080;2023-12-14T07:26:01;8.20;99.90
20284;DHT22;10301;50.832;4.080;2023-12-14T07:28:26;8.30;98.60
20284;DHT22;10301;50.832;4.080;2023-12-14T07:30:52;8.30;96.60
20284;DHT22;10301;50.832;4.080;2023-12-14T07:33:18;8.30;96.90
20284;DHT22;10301;50.832;4.080;2023-12-14T07:35:44;8.40;96.60
20284;DHT22;10301;50.832;4.080;2023-12-14T07:38:10;8.30;96.70
20284;DHT22;10301;50.832;4.080;2023-12-14T07:40:36;8.30;97.60
20284;DHT22;10301;50.832;4.080;2023-12-14T07:43:01;8.30;98.60
20284;DHT22;10301;50.832;4.080;2023-12-14T07:45:27;8.40;98.50
20284;DHT22;10301;50.832;4.080;2023-12-14T07:47:53;8.50;97.00
20284;DHT22;10301;50.832;4.080;2023-12-14T07:50:19;8.60;95.60
20284;DHT22;10301;50.832;4.080;2023-12-14T07:52:45;8.50;96.30
20284;DHT22;10301;50.832;4.080;2023-12-14T07:55:11;8.50;97.20
20284;DHT22;10301;50.832;4.080;2023-12-14T07:57:39;8.60;98.00
20284;DHT22;10301;50.832;4.080;2023-12-14T08:00:07;8.60;96.10
20284;DHT22;10301;50.832;4.080;2023-12-14T08:02:36;8.60;96.70
20284;DHT22;10301;50.832;4.080;2023-12-14T08:05:01;8.60;96.60
20284;DHT22;10301;50.832;4.080;2023-12-14T08:07:27;8.50;98.50
20284;DHT22;10301;50.832;4.080;2023-12-14T08:09:55;8.50;98.90
20284;DHT22;10301;50.832;4.080;2023-12-14T08:12:22;8.50;99.50
20284;DHT22;10301;50.832;4.080;2023-12-14T08:14:47;8.70;98.30
20284;DHT22;10301;50.832;4.080;2023-12-14T08:17:13;8.80;95.40
20284;DHT22;10301;50.832;4.080;2023-12-14T08:19:39;8.80;94.90
20284;DHT22;10301;50.832;4.080;2023-12-14T08:22:05;8.70;96.00
20284;DHT22;10301;50.832;4.080;2023-12-14T08:24:30;8.70;96.10
20284;DHT22;10301;50.832;4.080;2023-12-14T08:26:56;8.70;96.80
20284;DHT22;10301;50.832;4.080;2023-12-14T08:29:21;8.70;97.00
20284;DHT22;10301;50.832;4.080;2023-12-14T08:31:48;8.70;97.50
20284;DHT22;10301;50.832;4.080;2023-12-14T08:34:13;8.70;96.80
20284;DHT22;10301;50.832;4.080;2023-12-14T08:36:40;8.80;97.80
20284;DHT22;10301;50.832;4.080;2023-12-14T08:39:05;8.80;96.30
20284;DHT22;10301;50.832;4.080;2023-12-14T08:41:31;8.80;96.70
20284;DHT22;10301;50.832;4.080;2023-12-14T08:43:56;8.90;95.70
20284;DHT22;10301;50.832;4.080;2023-12-14T08:46:22;8.90;96.70
20284;DHT22;10301;50.832;4.080;2023-12-14T08:48:48;9.00;97.00
20284;DHT22;10301;50.832;4.080;2023-12-14T08:51:14;9.10;96.60
20284;DHT22;10301;50.832;4.080;2023-12-14T08:53:40;9.20;95.00
20284;DHT22;10301;50.832;4.080;2023-12-14T08:56:06;9.10;94.90
20284;DHT22;10301;50.832;4.080;2023-12-14T08:58:31;9.20;93.00
20284;DHT22;10301;50.832;4.080;2023-12-14T09:00:58;9.20;94.50
20284;DHT22;10301;50.832;4.080;2023-12-14T09:03:23;9.20;95.20
20284;DHT22;10301;50.832;4.080;2023-12-14T09:05:49;9.40;90.40
20284;DHT22;10301;50.832;4.080;2023-12-14T09:08:15;9.50;90.10
20284;DHT22;10301;50.832;4.080;2023-12-14T09:10:40;9.60;89.40
20284;DHT22;10301;50.832;4.080;2023-12-14T09:13:06;9.60;85.90
20284;DHT22;10301;50.832;4.080;2023-12-14T09:15:32;9.60;84.60
20284;DHT22;10301;50.832;4.080;2023-12-14T09:17:58;9.70;82.40
20284;DHT22;10301;50.832;4.080;2023-12-14T09:20:24;9.80;81.10
20284;DHT22;10301;50.832;4.080;2023-12-14T09:22:50;9.90;77.80
20284;DHT22;10301;50.832;4.080;2023-12-14T09:25:16;10.00;71.20
20284;DHT22;10301;50.832;4.080;2023-12-14T09:27:42;10.00;72.90
20284;DHT22;10301;50.832;4.080;2023-12-14T09:30:08;9.90;78.80
20284;DHT22;10301;50.832;4.080;2023-12-14T09:32:34;10.10;75.40
20284;DHT22;10301;50.832;4.080;2023-12-14T09:35:00;10.00;70.70
20284;DHT22;10301;50.832;4.080;2023-12-14T09:37:26;9.90;76.40
20284;DHT22;10301;50.832;4.080;2023-12-14T09:39:52;9.80;77.70
20284;DHT22;10301;50.832;4.080;2023-12-14T09:42:21;9.70;86.40
20284;DHT22;10301;50.832;4.080;2023-12-14T09:44:48;9.80;86.50
20284;DHT22;10301;50.832;4.080;2023-12-14T09:47:14;10.00;84.10
20284;DHT22;10301;50.832;4.080;2023-12-14T09:49:41;10.00;78.80
20284;DHT22;10301;50.832;4.080;2023-12-14T09:52:09;10.00;82.30
20284;DHT22;10301;50.832;4.080;2023-12-14T09:54:34;9.70;88.70
20284;DHT22;10301;50.832;4.080;2023-12-14T09:57:01;9.80;92.20
20284;DHT22;10301;50.832;4.080;2023-12-14T09:59:26;10.00;90.10
20284;DHT22;10301;50.832;4.080;2023-12-14T10:01:52;10.20;88.50
20284;DHT22;10301;50.832;4.080;2023-12-14T10:04:19;10.50;80.00
20284;DHT22;10301;50.832;4.080;2023-12-14T10:06:49;10.60;72.90
20284;DHT22;10301;50.832;4.080;2023-12-14T10:09:14;10.50;72.80
20284;DHT22;10301;50.832;4.080;2023-12-14T10:11:45;10.60;77.00
20284;DHT22;10301;50.832;4.080;2023-12-14T10:14:22;10.60;74.50
20284;DHT22;10301;50.832;4.080;2023-12-14T10:16:49;10.70;77.60
20284;DHT22;10301;50.832;4.080;2023-12-14T10:19:19;10.90;67.50
20284;DHT22;10301;50.832;4.080;2023-12-14T10:21:49;10.80;64.30
20284;DHT22;10301;50.832;4.080;2023-12-14T10:24:16;10.80;70.00
20284;DHT22;10301;50.832;4.080;2023-12-14T10:26:45;11.00;69.20
20284;DHT22;10301;50.832;4.080;2023-12-14T10:29:10;11.10;66.90
20284;DHT22;10301;50.832;4.080;2023-12-14T10:31:36;11.30;60.40
20284;DHT22;10301;50.832;4.080;2023-12-14T10:34:05;11.50;57.90
20284;DHT22;10301;50.832;4.080;2023-12-14T10:36:31;11.60;49.80
20284;DHT22;10301;50.832;4.080;2023-12-14T10:38:59;11.40;53.30
20284;DHT22;10301;50.832;4.080;2023-12-14T10:41:26;11.50;49.80
20284;DHT22;10301;50.832;4.080;2023-12-14T10:43:54;11.40;50.80
20284;DHT22;10301;50.832;4.080;2023-12-14T10:46:20;11.20;49.60
20284;DHT22;10301;50.832;4.080;2023-12-14T10:48:55;11.10;52.40
20284;DHT22;10301;50.832;4.080;2023-12-14T10:51:23;10.90;52.60
20284;DHT22;10301;50.832;4.080;2023-12-14T10:53:49;10.90;55.50
20284;DHT22;10301;50.832;4.080;2023-12-14T10:56:17;10.80;58.30
20284;DHT22;10301;50.832;4.080;2023-12-14T10:58:47;10.70;65.10
20284;DHT22;10301;50.832;4.080;2023-12-14T11:01:23;10.60;65.70
20284;DHT22;10301;50.832;4.080;2023-12-14T11:03:53;10.60;69.70
20284;DHT22;10301;50.832;4.080;2023-12-14T11:08:46;10.30;79.70
20284;DHT22;10301;50.832;4.080;2023-12-14T11:11:12;10.10;86.10
20284;DHT22;10301;50.832;4.080;2023-12-14T11:13:41;10.00;92.40
20284;DHT22;10301;50.832;4.080;2023-12-14T11:16:08;9.90;94.10
20284;DHT22;10301;50.832;4.080;2023-12-14T11:18:33;9.80;97.30
20284;DHT22;10301;50.832;4.080;2023-12-14T11:21:02;9.50;99.90
20284;DHT22;10301;50.832;4.080;2023-12-14T11:26:06;9.60;99.90
20284;DHT22;10301;50.832;4.080;2023-12-14T11:28:37;9.70;99.50
20284;DHT22;10301;50.832;4.080;2023-12-14T11:31:03;9.60;99.90
20284;DHT22;10301;50.832;4.080;2023-12-14T11:33:35;9.50;99.90
20284;DHT22;10301;50.832;4.080;2023-12-14T11:36:02;9.50;99.90
20284;DHT22;10301;50.832;4.080;2023-12-14T11:38:29;9.60;99.90
20284;DHT22;10301;50.832;4.080;2023-12-14T11:40:55;9.60;99.90
20284;DHT22;10301;50.832;4.080;2023-12-14T11:43:21;9.60;99.90
20284;DHT22;10301;50.832;4.080;2023-12-14T11:45:47;9.60;99.90
20284;DHT22;10301;50.832;4.080;2023-12-14T11:48:13;9.60;99.90
20284;DHT22;10301;50.832;4.080;2023-12-14T11:50:40;9.50;99.90
20284;DHT22;10301;50.832;4.080;2023-12-14T11:53:07;9.60;99.90
20284;DHT22;10301;50.832;4.080;2023-12-14T11:55:35;9.60;99.90
20284;DHT22;10301;50.832;4.080;2023-12-14T11:58:01;9.70;99.90
20284;DHT22;10301;50.832;4.080;2023-12-14T12:00:27;9.60;99.90
20284;DHT22;10301;50.832;4.080;2023-12-14T12:03:16;9.80;99.90
20284;DHT22;10301;50.832;4.080;2023-12-14T12:08:13;9.90;99.90
20284;DHT22;10301;50.832;4.080;2023-12-14T12:10:40;9.90;99.90
20284;DHT22;10301;50.832;4.080;2023-12-14T12:13:16;10.00;99.90
20284;DHT22;10301;50.832;4.080;2023-12-14T12:15:42;10.10;99.90
20284;DHT22;10301;50.832;4.080;2023-12-14T12:18:13;10.10;99.90
20284;DHT22;10301;50.832;4.080;2023-12-14T12:20:39;10.20;99.90
20284;DHT22;10301;50.832;4.080;2023-12-14T12:23:05;10.10;99.90
20284;DHT22;10301;50.832;4.080;2023-12-14T12:25:31;10.20;99.90
20284;DHT22;10301;50.832;4.080;2023-12-14T12:27:58;10.10;99.90
20284;DHT22;10301;50.832;4.080;2023-12-14T12:30:24;10.20;99.90
20284;DHT22;10301;50.832;4.080;2023-12-14T12:32:50;10.20;99.90
20284;DHT22;10301;50.832;4.080;2023-12-14T12:35:21;10.20;99.90
20284;DHT22;10301;50.832;4.080;2023-12-14T12:37:47;10.30;99.90
20284;DHT22;10301;50.832;4.080;2023-12-14T12:40:19;10.30;99.90
20284;DHT22;10301;50.832;4.080;2023-12-14T12:42:45;10.40;99.90
20284;DHT22;10301;50.832;4.080;2023-12-14T12:45:14;10.40;99.90
20284;DHT22;10301;50.832;4.080;2023-12-14T12:47:40;10.30;99.90
20284;DHT22;10301;50.832;4.080;2023-12-14T12:50:06;10.30;99.90
20284;DHT22;10301;50.832;4.080;2023-12-14T12:52:32;10.50;99.90
20284;DHT22;10301;50.832;4.080;2023-12-14T12:54:57;10.60;99.90
20284;DHT22;10301;50.832;4.080;2023-12-14T12:57:23;10.60;99.90
20284;DHT22;10301;50.832;4.080;2023-12-14T12:59:49;10.70;99.90
20284;DHT22;10301;50.832;4.080;2023-12-14T13:02:14;10.70;99.20
20284;DHT22;10301;50.832;4.080;2023-12-14T13:04:40;10.60;98.70
20284;DHT22;10301;50.832;4.080;2023-12-14T13:07:06;10.40;99.90
20284;DHT22;10301;50.832;4.080;2023-12-14T13:09:31;10.50;99.90
20284;DHT22;10301;50.832;4.080;2023-12-14T13:11:57;10.40;99.90
20284;DHT22;10301;50.832;4.080;2023-12-14T13:14:23;10.50;99.90
20284;DHT22;10301;50.832;4.080;2023-12-14T13:16:48;10.20;99.90
20284;DHT22;10301;50.832;4.080;2023-12-14T13:19:15;10.20;99.90
20284;DHT22;10301;50.832;4.080;2023-12-14T13:21:41;10.20;99.90
20284;DHT22;10301;50.832;4.080;2023-12-14T13:24:07;10.30;99.90
20284;DHT22;10301;50.832;4.080;2023-12-14T13:26:32;10.30;99.90
20284;DHT22;10301;50.832;4.080;2023-12-14T13:28:59;10.40;99.90
20284;DHT22;10301;50.832;4.080;2023-12-14T13:31:24;10.40;99.90
20284;DHT22;10301;50.832;4.080;2023-12-14T13:33:50;10.30;99.90
20284;DHT22;10301;50.832;4.080;2023-12-14T13:36:16;10.40;99.90
20284;DHT22;10301;50.832;4.080;2023-12-14T13:38:42;10.60;96.60
20284;DHT22;10301;50.832;4.080;2023-12-14T13:41:11;10.70;97.60
20284;DHT22;10301;50.832;4.080;2023-12-14T13:43:36;10.70;97.50
20284;DHT22;10301;50.832;4.080;2023-12-14T13:46:02;10.90;95.90
20284;DHT22;10301;50.832;4.080;2023-12-14T13:48:28;10.90;95.30
20284;DHT22;10301;50.832;4.080;2023-12-14T13:50:55;10.90;96.40
20284;DHT22;10301;50.832;4.080;2023-12-14T13:53:21;11.00;95.80
20284;DHT22;10301;50.832;4.080;2023-12-14T13:55:47;11.00;93.60
20284;DHT22;10301;50.832;4.080;2023-12-14T13:58:16;10.90;93.50
20284;DHT22;10301;50.832;4.080;2023-12-14T14:00:43;10.90;91.30
20284;DHT22;10301;50.832;4.080;2023-12-14T14:03:09;11.00;90.60
20284;DHT22;10301;50.832;4.080;2023-12-14T14:05:35;11.00;90.10
20284;DHT22;10301;50.832;4.080;2023-12-14T14:08:01;10.90;90.70
20284;DHT22;10301;50.832;4.080;2023-12-14T14:10:26;10.90;91.00
20284;DHT22;10301;50.832;4.080;2023-12-14T14:12:52;10.70;93.70
20284;DHT22;10301;50.832;4.080;2023-12-14T14:15:18;10.70;93.70
20284;DHT22;10301;50.832;4.080;2023-12-14T14:17:45;10.70;93.80
20284;DHT22;10301;50.832;4.080;2023-12-14T14:20:13;10.60;94.80
20284;DHT22;10301;50.832;4.080;2023-12-14T14:22:39;10.70;94.30
20284;DHT22;10301;50.832;4.080;2023-12-14T14:25:05;11.00;83.80
20284;DHT22;10301;50.832;4.080;2023-12-14T14:27:33;11.00;69.80
20284;DHT22;10301;50.832;4.080;2023-12-14T14:29:59;10.90;65.00
20284;DHT22;10301;50.832;4.080;2023-12-14T14:32:25;10.70;72.20
20284;DHT22;10301;50.832;4.080;2023-12-14T14:34:51;10.60;81.60
20284;DHT22;10301;50.832;4.080;2023-12-14T14:37:18;10.60;79.00
20284;DHT22;10301;50.832;4.080;2023-12-14T14:39:44;10.60;79.30
20284;DHT22;10301;50.832;4.080;2023-12-14T14:42:10;10.40;88.90
20284;DHT22;10301;50.832;4.080;2023-12-14T14:44:35;10.50;90.40
20284;DHT22;10301;50.832;4.080;2023-12-14T14:47:02;10.30;93.50
20284;DHT22;10301;50.832;4.080;2023-12-14T14:49:28;10.30;94.40
20284;DHT22;10301;50.832;4.080;2023-12-14T14:51:54;10.50;91.10
20284;DHT22;10301;50.832;4.080;2023-12-14T14:54:20;10.40;90.00
20284;DHT22;10301;50.832;4.080;2023-12-14T14:56:46;10.60;78.80
20284;DHT22;10301;50.832;4.080;2023-12-14T14:59:11;10.40;80.00
20284;DHT22;10301;50.832;4.080;2023-12-14T15:01:41;10.40;80.80
20284;DHT22;10301;50.832;4.080;2023-12-14T15:04:07;10.30;77.10
20284;DHT22;10301;50.832;4.080;2023-12-14T15:06:32;10.30;77.00
20284;DHT22;10301;50.832;4.080;2023-12-14T15:08:59;10.30;77.80
20284;DHT22;10301;50.832;4.080;2023-12-14T15:11:25;10.20;78.90
20284;DHT22;10301;50.832;4.080;2023-12-14T15:13:50;10.20;79.00
20284;DHT22;10301;50.832;4.080;2023-12-14T15:16:17;10.20;80.60
20284;DHT22;10301;50.832;4.080;2023-12-14T15:18:43;10.30;77.60
20284;DHT22;10301;50.832;4.080;2023-12-14T15:21:10;10.30;71.30
20284;DHT22;10301;50.832;4.080;2023-12-14T15:23:35;10.20;73.80
20284;DHT22;10301;50.832;4.080;2023-12-14T15:26:02;10.30;72.40
20284;DHT22;10301;50.832;4.080;2023-12-14T15:28:28;10.40;70.60
20284;DHT22;10301;50.832;4.080;2023-12-14T15:30:53;10.30;71.20
20284;DHT22;10301;50.832;4.080;2023-12-14T15:33:19;10.30;66.90
20284;DHT22;10301;50.832;4.080;2023-12-14T15:35:45;10.30;65.90
20284;DHT22;10301;50.832;4.080;2023-12-14T15:38:11;10.10;69.40
20284;DHT22;10301;50.832;4.080;2023-12-14T15:40:37;10.00;73.00
20284;DHT22;10301;50.832;4.080;2023-12-14T15:43:06;10.00;76.00